Time;durP1;ratioP1;P1;durP2;ratioP2;P2;SDS_P1;SDS_P2;PMS_P1;PMS_P2;Temp;Humidity;BMP_temperature;BMP_pressure;BME280_temperature;BME280_humidity;BME280_pressure;Samples;Min_cycle;Max_cycle;Signal;HPM_P1;HPM_P2
2021/07/24 00:01:05;;;;;;;7.75;3.70;;;19.40;72.60;;;;;;5026585;28;20045;-83
2021/07/24 00:03:31;;;;;;;6.47;3.72;;;19.50;72.80;;;;;;5022308;28;20061;-83
2021/07/24 00:05:57;;;;;;;8.82;3.70;;;19.40;72.70;;;;;;5018939;28;20030;-84
2021/07/24 00:08:23;;;;;;;9.43;3.78;;;19.40;72.80;;;;;;5032231;28;20166;-83
2021/07/24 00:10:48;;;;;;;8.32;3.35;;;19.40;72.90;;;;;;5016215;28;20033;-84
2021/07/24 00:13:14;;;;;;;6.57;3.50;;;19.30;72.80;;;;;;5015203;28;20462;-83
2021/07/24 00:15:40;;;;;;;6.78;3.63;;;19.30;73.10;;;;;;5015854;28;20022;-83
2021/07/24 00:18:05;;;;;;;8.90;4.32;;;19.20;73.20;;;;;;5029949;28;20052;-83
2021/07/24 00:20:31;;;;;;;9.07;3.65;;;19.30;73.30;;;;;;5028228;28;20030;-83
2021/07/24 00:22:57;;;;;;;8.15;4.18;;;19.20;73.20;;;;;;5013494;28;20065;-82
2021/07/24 00:25:22;;;;;;;6.05;3.95;;;19.30;73.20;;;;;;5014197;28;20108;-82
2021/07/24 00:27:48;;;;;;;7.63;3.78;;;19.30;73.20;;;;;;5014407;28;20028;-82
2021/07/24 00:30:14;;;;;;;6.20;3.50;;;19.30;73.30;;;;;;5013355;28;20413;-82
2021/07/24 00:32:40;;;;;;;7.75;3.80;;;19.20;73.40;;;;;;5013275;28;20079;-81
2021/07/24 00:35:06;;;;;;;6.80;3.42;;;19.10;73.50;;;;;;5013244;28;20030;-83
2021/07/24 00:37:32;;;;;;;7.88;3.88;;;19.10;73.70;;;;;;5012677;28;20018;-82
2021/07/24 00:39:57;;;;;;;7.10;4.00;;;19.20;73.70;;;;;;5037776;28;20021;-82
2021/07/24 00:42:25;;;;;;;9.88;4.38;;;19.20;73.70;;;;;;5014225;28;20014;-83
2021/07/24 00:44:52;;;;;;;7.28;3.78;;;19.20;73.80;;;;;;5028729;28;20036;-83
2021/07/24 00:47:21;;;;;;;7.05;3.53;;;19.20;73.90;;;;;;5012993;28;20048;-82
2021/07/24 00:49:48;;;;;;;11.35;4.35;;;19.20;73.90;;;;;;5028065;28;20034;-83
2021/07/24 00:52:14;;;;;;;7.43;4.03;;;19.20;73.90;;;;;;5012630;28;20030;-83
2021/07/24 00:54:42;;;;;;;8.30;3.67;;;19.20;73.80;;;;;;5012541;28;20057;-83
2021/07/24 00:57:08;;;;;;;6.85;3.83;;;19.20;73.90;;;;;;5012956;28;20362;-83
2021/07/24 00:59:34;;;;;;;7.45;3.65;;;19.10;74.00;;;;;;5027124;28;20030;-83
2021/07/24 01:02:00;;;;;;;7.55;3.78;;;19.10;74.10;;;;;;5028426;28;20060;-83
2021/07/24 01:04:26;;;;;;;6.00;3.55;;;19.20;74.20;;;;;;5012186;28;20021;-82
2021/07/24 01:06:52;;;;;;;9.13;3.97;;;19.10;74.20;;;;;;5028088;28;20018;-83
2021/07/24 01:09:18;;;;;;;10.35;4.57;;;19.10;74.30;;;;;;5010698;28;20077;-81
2021/07/24 01:11:44;;;;;;;8.43;3.78;;;19.10;74.30;;;;;;5028048;28;20121;-82
2021/07/24 01:14:11;;;;;;;7.70;4.15;;;19.10;74.40;;;;;;5013034;28;20156;-82
2021/07/24 01:16:38;;;;;;;8.43;3.88;;;19.10;74.50;;;;;;5027276;28;20096;-82
2021/07/24 01:19:03;;;;;;;10.55;4.32;;;19.10;74.50;;;;;;5027735;28;20030;-82
2021/07/24 01:21:30;;;;;;;9.75;4.15;;;19.00;74.60;;;;;;5012161;28;20026;-82
2021/07/24 01:23:56;;;;;;;7.07;4.03;;;18.90;74.80;;;;;;5011770;28;20372;-82
2021/07/24 01:26:26;;;;;;;10.55;4.40;;;18.90;75.00;;;;;;5027575;28;20045;-82
2021/07/24 01:28:52;;;;;;;9.80;4.23;;;18.90;75.20;;;;;;5012642;28;20042;-82
2021/07/24 01:31:18;;;;;;;9.18;3.67;;;18.90;75.20;;;;;;5012538;28;20026;-82
2021/07/24 01:33:44;;;;;;;8.07;4.00;;;18.90;75.30;;;;;;5011424;28;20132;-82
2021/07/24 01:36:10;;;;;;;9.25;3.75;;;18.80;75.40;;;;;;5013405;28;20585;-82
2021/07/24 01:38:37;;;;;;;8.13;3.70;;;18.80;75.50;;;;;;5012071;28;20429;-83
2021/07/24 01:41:07;;;;;;;8.23;4.03;;;18.80;75.60;;;;;;5011117;28;20022;-82
2021/07/24 01:43:33;;;;;;;7.63;4.10;;;18.80;75.60;;;;;;5011743;28;20018;-82
2021/07/24 01:45:58;;;;;;;9.93;4.00;;;18.80;75.60;;;;;;5014570;28;20077;-82
2021/07/24 01:48:40;;;;;;;6.90;3.67;;;18.80;75.70;;;;;;5010500;28;20030;-82
2021/07/24 01:53:56;;;;;;;8.77;3.88;;;18.70;76.00;;;;;;5014894;28;20142;-82
2021/07/24 01:56:25;;;;;;;8.65;3.55;;;18.70;76.20;;;;;;5036503;28;20133;-81
2021/07/24 01:58:50;;;;;;;11.05;3.88;;;18.60;76.20;;;;;;5014812;28;20057;-82
2021/07/24 02:01:19;;;;;;;9.07;3.65;;;18.60;76.10;;;;;;5011854;28;20482;-82
2021/07/24 02:03:48;;;;;;;8.57;3.70;;;18.60;76.20;;;;;;5011501;28;20026;-81
2021/07/24 02:06:16;;;;;;;7.75;3.70;;;18.60;76.40;;;;;;5011770;28;20374;-82
2021/07/24 02:08:45;;;;;;;6.65;3.55;;;18.60;76.40;;;;;;5010065;28;20037;-81
2021/07/24 02:11:12;;;;;;;7.35;3.75;;;18.60;76.50;;;;;;5027280;28;20170;-82
2021/07/24 02:13:38;;;;;;;9.10;4.55;;;18.50;76.40;;;;;;5011195;28;20072;-82
2021/07/24 02:16:06;;;;;;;9.25;4.35;;;18.50;76.60;;;;;;5027283;28;20474;-82
2021/07/24 02:18:33;;;;;;;7.55;4.03;;;18.50;76.60;;;;;;5011515;28;20026;-83
2021/07/24 02:21:00;;;;;;;7.72;3.67;;;18.50;76.60;;;;;;5027063;28;20019;-82
2021/07/24 02:23:26;;;;;;;7.18;3.78;;;18.50;76.60;;;;;;5010314;28;20034;-82
2021/07/24 02:25:51;;;;;;;9.55;4.22;;;18.50;76.60;;;;;;5027405;28;20033;-82
2021/07/24 02:28:17;;;;;;;7.95;4.00;;;18.50;76.60;;;;;;5011868;28;20053;-82
2021/07/24 02:30:43;;;;;;;7.43;3.50;;;18.50;76.70;;;;;;5010172;28;20545;-82
2021/07/24 02:33:08;;;;;;;8.50;3.85;;;18.50;76.60;;;;;;5011904;28;20033;-83
2021/07/24 02:35:34;;;;;;;8.98;3.58;;;18.50;76.80;;;;;;5013705;28;20080;-82
2021/07/24 02:38:00;;;;;;;7.13;3.22;;;18.50;76.90;;;;;;5030901;28;20014;-83
2021/07/24 02:40:26;;;;;;;8.90;3.75;;;18.50;77.00;;;;;;5029794;28;20018;-81
2021/07/24 02:42:52;;;;;;;8.35;3.75;;;18.50;77.10;;;;;;5014136;28;20025;-82
2021/07/24 02:45:18;;;;;;;7.10;3.75;;;18.40;77.20;;;;;;5030312;28;20121;-82
2021/07/24 02:47:44;;;;;;;8.45;3.90;;;18.40;77.30;;;;;;5013217;28;21001;-81
2021/07/24 02:50:10;;;;;;;8.15;3.67;;;18.40;77.40;;;;;;5014807;28;20040;-82
2021/07/24 02:52:36;;;;;;;7.30;3.53;;;18.40;77.50;;;;;;5014520;28;20029;-81
2021/07/24 02:55:01;;;;;;;9.88;4.20;;;18.40;77.60;;;;;;5013304;28;20137;-82
2021/07/24 02:57:27;;;;;;;8.90;3.90;;;18.30;77.70;;;;;;5014096;28;20049;-82
2021/07/24 02:59:53;;;;;;;9.77;4.00;;;18.30;77.80;;;;;;5013739;28;20612;-82
2021/07/24 03:02:19;;;;;;;8.05;3.75;;;18.30;77.90;;;;;;5014823;28;20022;-81
2021/07/24 03:04:44;;;;;;;8.15;3.72;;;18.20;77.90;;;;;;5029584;28;20117;-82
2021/07/24 03:07:10;;;;;;;7.97;4.03;;;18.20;77.90;;;;;;5014763;28;20450;-81
2021/07/24 03:09:36;;;;;;;7.88;3.80;;;18.20;78.20;;;;;;5015098;28;20152;-82
2021/07/24 03:12:03;;;;;;;8.15;3.90;;;18.20;78.30;;;;;;5032047;28;20025;-81
2021/07/24 03:14:28;;;;;;;9.10;4.22;;;18.10;78.30;;;;;;5042651;28;20022;-83
2021/07/24 03:16:54;;;;;;;7.43;4.30;;;18.10;78.30;;;;;;5014145;28;20105;-82
2021/07/24 03:19:20;;;;;;;10.23;5.10;;;18.10;78.40;;;;;;5014817;28;20485;-82
2021/07/24 03:21:45;;;;;;;7.70;3.75;;;18.10;78.60;;;;;;5029477;28;20037;-82
2021/07/24 03:24:11;;;;;;;8.45;4.00;;;18.00;78.60;;;;;;5014729;28;20064;-82
2021/07/24 03:26:39;;;;;;;8.70;3.90;;;18.10;78.60;;;;;;5012612;28;20026;-83
2021/07/24 03:29:05;;;;;;;7.75;4.03;;;18.10;78.60;;;;;;5029531;28;20058;-82
2021/07/24 03:31:31;;;;;;;8.32;4.50;;;18.10;78.60;;;;;;5014024;28;20126;-82
2021/07/24 03:33:56;;;;;;;8.38;3.70;;;18.10;78.70;;;;;;5030065;28;20247;-83
2021/07/24 03:36:22;;;;;;;9.18;4.35;;;18.10;78.70;;;;;;5014248;28;20105;-83
2021/07/24 03:38:48;;;;;;;8.48;3.65;;;18.10;78.70;;;;;;5013807;28;20034;-82
2021/07/24 03:41:13;;;;;;;6.35;3.67;;;18.00;78.80;;;;;;5014186;28;20582;-82
2021/07/24 03:43:41;;;;;;;8.02;3.60;;;17.90;78.90;;;;;;5012422;28;20144;-82
2021/07/24 03:46:19;;;;;;;7.70;2.95;;;17.90;79.10;;;;;;5012298;28;20238;-82
2021/07/24 03:48:45;;;;;;;5.97;3.35;;;17.90;79.20;;;;;;5012175;28;20026;-82
2021/07/24 03:51:12;;;;;;;8.57;4.45;;;17.90;79.10;;;;;;5014086;28;20030;-82
2021/07/24 03:53:41;;;;;;;7.93;4.00;;;17.90;79.20;;;;;;5013379;28;20049;-82
2021/07/24 03:56:18;;;;;;;8.98;3.53;;;17.90;79.30;;;;;;5014051;28;20033;-83
2021/07/24 03:58:45;;;;;;;8.20;4.10;;;17.90;79.40;;;;;;5028625;28;20033;-82
2021/07/24 04:01:11;;;;;;;9.02;4.25;;;17.90;79.30;;;;;;5028942;28;20075;-82
2021/07/24 04:03:37;;;;;;;7.15;3.58;;;17.90;79.30;;;;;;5028436;28;20080;-82
2021/07/24 04:06:03;;;;;;;8.23;4.07;;;17.90;79.30;;;;;;5028993;28;20470;-82
2021/07/24 04:08:31;;;;;;;6.05;3.47;;;17.90;79.40;;;;;;5013369;28;20037;-82
2021/07/24 04:10:57;;;;;;;9.43;4.40;;;17.90;79.50;;;;;;5029133;28;20545;-82
2021/07/24 04:13:23;;;;;;;8.43;4.13;;;17.80;79.60;;;;;;5028998;28;20120;-82
2021/07/24 04:15:49;;;;;;;7.65;4.43;;;17.80;79.80;;;;;;5013266;28;20101;-82
2021/07/24 04:18:14;;;;;;;7.88;4.10;;;17.80;80.00;;;;;;5028746;28;20120;-82
2021/07/24 04:20:41;;;;;;;8.23;3.92;;;17.80;80.10;;;;;;5028110;28;20056;-82
2021/07/24 04:23:07;;;;;;;7.50;3.85;;;17.80;80.00;;;;;;5028594;28;20026;-83
2021/07/24 04:25:33;;;;;;;9.57;4.15;;;17.80;80.00;;;;;;5014646;28;20026;-81
2021/07/24 04:27:59;;;;;;;8.85;3.97;;;17.90;79.90;;;;;;5017815;28;20047;-82
2021/07/24 04:30:24;;;;;;;8.05;3.72;;;18.00;79.80;;;;;;5039317;28;20104;-82
2021/07/24 04:32:51;;;;;;;6.72;3.20;;;18.00;79.70;;;;;;5018547;28;20032;-83
2021/07/24 04:35:16;;;;;;;9.20;3.90;;;18.10;79.60;;;;;;5014170;28;20096;-82
2021/07/24 04:37:42;;;;;;;6.60;3.33;;;18.10;79.50;;;;;;5012814;28;20100;-82
2021/07/24 04:40:08;;;;;;;7.90;3.95;;;18.20;79.40;;;;;;5013616;28;20057;-83
2021/07/24 04:42:34;;;;;;;9.20;3.78;;;18.20;79.30;;;;;;5027727;28;20068;-82
2021/07/24 04:45:00;;;;;;;6.60;3.17;;;18.20;79.20;;;;;;5013572;28;20054;-83
2021/07/24 04:47:25;;;;;;;7.93;3.50;;;18.30;79.20;;;;;;5013121;28;20414;-83
2021/07/24 04:49:53;;;;;;;8.10;3.72;;;18.30;79.10;;;;;;5027649;28;20080;-82
2021/07/24 04:52:20;;;;;;;8.27;3.92;;;18.30;79.10;;;;;;5028235;28;20033;-83
2021/07/24 04:54:48;;;;;;;8.68;3.30;;;18.40;79.20;;;;;;5012526;28;20132;-82
2021/07/24 04:57:16;;;;;;;7.38;3.90;;;18.40;79.10;;;;;;5012987;28;20045;-82
2021/07/24 04:59:48;;;;;;;7.35;3.70;;;18.40;79.00;;;;;;5027408;28;20488;-82
2021/07/24 05:02:16;;;;;;;8.65;4.38;;;18.40;79.00;;;;;;5044733;28;20040;-82
2021/07/24 05:04:46;;;;;;;6.57;2.90;;;18.40;79.10;;;;;;5046652;28;20074;-82
2021/07/24 05:07:13;;;;;;;6.27;3.80;;;18.40;79.20;;;;;;5032521;28;20036;-82
2021/07/24 05:09:39;;;;;;;7.43;3.47;;;18.40;79.10;;;;;;5030539;28;20034;-82
2021/07/24 05:12:05;;;;;;;7.55;3.47;;;18.40;79.20;;;;;;5032614;28;20026;-83
2021/07/24 05:14:31;;;;;;;7.28;3.03;;;18.40;79.20;;;;;;5032396;28;20021;-83
2021/07/24 05:17:12;;;;;;;8.73;3.72;;;18.40;79.20;;;;;;5047043;28;20017;-82
2021/07/24 05:19:39;;;;;;;8.45;3.25;;;18.50;79.90;;;;;;5047072;28;20038;-82
2021/07/24 05:22:07;;;;;;;8.13;3.05;;;18.50;79.20;;;;;;5031204;28;20033;-83
2021/07/24 05:24:36;;;;;;;9.38;4.22;;;18.50;79.10;;;;;;5032173;28;20018;-83
2021/07/24 05:27:03;;;;;;;7.30;4.28;;;18.60;79.10;;;;;;5047112;28;20076;-82
2021/07/24 05:29:29;;;;;;;8.25;3.80;;;18.60;79.00;;;;;;5032350;28;20041;-83
2021/07/24 05:31:55;;;;;;;7.28;3.53;;;18.60;79.00;;;;;;5046533;28;20112;-82
2021/07/24 05:34:22;;;;;;;7.47;3.60;;;18.60;78.90;;;;;;5047626;28;20501;-82
2021/07/24 05:36:48;;;;;;;7.50;3.67;;;18.70;78.90;;;;;;5046999;28;20481;-82
2021/07/24 05:39:13;;;;;;;9.90;3.60;;;18.70;78.80;;;;;;5030941;28;20108;-83
2021/07/24 05:41:39;;;;;;;8.15;3.70;;;18.80;78.80;;;;;;5031494;28;20462;-82
2021/07/24 05:44:05;;;;;;;9.73;3.22;;;18.80;78.70;;;;;;5035120;28;20044;-82
2021/07/24 05:46:30;;;;;;;8.68;3.35;;;18.80;78.60;;;;;;5045139;28;20537;-82
2021/07/24 05:48:56;;;;;;;6.60;3.28;;;18.90;78.50;;;;;;5038295;28;20124;-83
2021/07/24 05:51:22;;;;;;;8.13;3.75;;;18.90;78.40;;;;;;5033618;28;20097;-82
2021/07/24 05:53:47;;;;;;;7.80;3.85;;;18.90;78.40;;;;;;5031773;28;20049;-82
2021/07/24 05:56:13;;;;;;;8.55;3.67;;;18.90;78.40;;;;;;5031983;28;20363;-83
2021/07/24 05:58:39;;;;;;;7.35;3.45;;;18.90;78.40;;;;;;5029874;28;20040;-81
2021/07/24 06:01:11;;;;;;;7.20;3.58;;;18.90;78.50;;;;;;5047253;28;20028;-82
2021/07/24 06:03:37;;;;;;;8.40;4.38;;;18.90;78.60;;;;;;5030537;28;20021;-82
2021/07/24 06:06:03;;;;;;;6.40;3.15;;;18.90;78.50;;;;;;5031724;28;20025;-82
2021/07/24 06:08:28;;;;;;;8.73;3.80;;;19.00;78.50;;;;;;5031547;28;20048;-83
2021/07/24 06:10:58;;;;;;;8.30;3.80;;;19.00;78.50;;;;;;5034680;28;20033;-82
2021/07/24 06:13:24;;;;;;;7.35;3.88;;;19.00;78.60;;;;;;5035762;28;20104;-82
2021/07/24 06:15:50;;;;;;;8.30;3.42;;;19.00;78.60;;;;;;5035067;28;20064;-82
2021/07/24 06:18:15;;;;;;;8.52;4.10;;;19.10;78.70;;;;;;5034409;28;20121;-82
2021/07/24 06:20:41;;;;;;;8.57;4.00;;;19.10;78.60;;;;;;5035128;28;20025;-81
2021/07/24 06:23:07;;;;;;;8.02;3.63;;;19.10;78.60;;;;;;5034506;28;20022;-83
2021/07/24 06:25:33;;;;;;;9.82;3.78;;;19.10;78.70;;;;;;5035681;28;20076;-83
2021/07/24 06:27:58;;;;;;;8.70;3.70;;;19.10;78.70;;;;;;5038696;28;20026;-82
2021/07/24 06:30:24;;;;;;;6.60;3.55;;;19.10;78.70;;;;;;5045991;28;20531;-83
2021/07/24 06:32:50;;;;;;;6.63;3.45;;;19.10;78.80;;;;;;5049620;28;20030;-82
2021/07/24 06:35:16;;;;;;;7.78;3.92;;;19.10;78.70;;;;;;5044967;28;20026;-83
2021/07/24 06:37:41;;;;;;;8.63;4.45;;;19.20;78.90;;;;;;5051090;28;20124;-82
2021/07/24 06:40:07;;;;;;;7.88;3.38;;;19.20;78.80;;;;;;5052546;28;20087;-83
2021/07/24 06:42:35;;;;;;;6.70;3.70;;;19.20;78.80;;;;;;5036058;28;20130;-83
2021/07/24 06:45:00;;;;;;;8.38;4.20;;;19.20;78.70;;;;;;5049867;28;20319;-83
2021/07/24 06:47:26;;;;;;;7.55;3.65;;;19.20;78.80;;;;;;5050325;28;20412;-83
2021/07/24 06:49:52;;;;;;;8.07;4.05;;;19.20;78.70;;;;;;5033072;28;20366;-83
2021/07/24 06:52:17;;;;;;;7.00;3.85;;;19.30;78.80;;;;;;5033787;28;20049;-83
2021/07/24 06:54:43;;;;;;;6.95;3.55;;;19.30;78.80;;;;;;5049650;28;20128;-82
2021/07/24 06:57:08;;;;;;;9.63;4.20;;;19.30;78.70;;;;;;5035247;28;20087;-82
2021/07/24 06:59:34;;;;;;;6.68;3.20;;;19.40;78.70;;;;;;5033621;28;20034;-83
2021/07/24 07:02:00;;;;;;;8.30;3.70;;;19.50;78.60;;;;;;5050154;28;20028;-82
2021/07/24 07:04:27;;;;;;;9.77;3.90;;;19.50;78.40;;;;;;5051033;28;20033;-81
2021/07/24 07:06:52;;;;;;;8.60;3.78;;;19.60;78.30;;;;;;5059321;28;20386;-82
2021/07/24 07:09:18;;;;;;;8.77;4.18;;;19.60;78.30;;;;;;5034973;28;20037;-83
2021/07/24 07:11:44;;;;;;;7.47;3.13;;;19.60;78.20;;;;;;5034097;28;20100;-81
2021/07/24 07:14:10;;;;;;;7.85;3.40;;;19.70;78.10;;;;;;5033919;28;20326;-82
2021/07/24 07:16:35;;;;;;;7.10;3.33;;;19.80;78.10;;;;;;5049918;28;20025;-82
2021/07/24 07:19:02;;;;;;;7.57;3.63;;;19.80;77.90;;;;;;5032667;28;20474;-82
2021/07/24 07:21:27;;;;;;;7.10;3.42;;;19.90;77.90;;;;;;5033700;28;20138;-82
2021/07/24 07:23:53;;;;;;;8.35;3.30;;;19.90;77.80;;;;;;5049238;28;20100;-82
2021/07/24 07:26:28;;;;;;;7.18;3.67;;;20.00;77.80;;;;;;5034153;28;20382;-82
2021/07/24 07:28:55;;;;;;;6.82;3.67;;;20.10;77.70;;;;;;5034187;28;20116;-82
2021/07/24 07:31:22;;;;;;;6.90;3.05;;;20.10;77.50;;;;;;5034224;28;20450;-82
2021/07/24 07:33:48;;;;;;;6.82;3.55;;;20.10;77.30;;;;;;5033403;28;20026;-82
2021/07/24 07:36:14;;;;;;;8.18;3.20;;;20.20;77.40;;;;;;5033205;28;20021;-83
2021/07/24 07:38:39;;;;;;;6.97;3.45;;;20.30;77.20;;;;;;5033980;28;20441;-83
2021/07/24 07:41:05;;;;;;;7.85;3.97;;;20.40;77.00;;;;;;5033499;28;20036;-83
2021/07/24 07:43:31;;;;;;;7.93;3.70;;;20.40;76.90;;;;;;5034172;28;20052;-83
2021/07/24 07:45:56;;;;;;;7.55;3.42;;;20.40;76.90;;;;;;5033573;28;20030;-83
2021/07/24 07:48:22;;;;;;;7.03;3.47;;;20.50;76.90;;;;;;5034364;28;20044;-84
2021/07/24 07:50:49;;;;;;;7.80;3.53;;;20.50;76.90;;;;;;5048907;28;20047;-84
2021/07/24 07:53:14;;;;;;;6.22;2.95;;;20.60;76.80;;;;;;5049272;28;20029;-84
2021/07/24 07:55:41;;;;;;;9.88;3.55;;;20.60;76.70;;;;;;5049472;28;20017;-84
2021/07/24 07:58:16;;;;;;;7.97;3.67;;;20.70;76.60;;;;;;5033583;28;20490;-84
2021/07/24 08:00:42;;;;;;;9.68;4.20;;;20.80;76.70;;;;;;5033928;28;20075;-84
2021/07/24 08:03:07;;;;;;;8.00;3.38;;;20.80;76.40;;;;;;5032865;28;20038;-84
2021/07/24 08:05:33;;;;;;;7.15;3.35;;;20.80;76.40;;;;;;5033793;28;20068;-84
2021/07/24 08:07:59;;;;;;;7.07;3.33;;;20.90;76.30;;;;;;5048469;28;20021;-84
2021/07/24 08:10:25;;;;;;;7.15;4.03;;;20.90;76.20;;;;;;5033834;28;20547;-85
2021/07/24 08:12:52;;;;;;;7.28;3.60;;;20.90;76.20;;;;;;5048749;28;20025;-84
2021/07/24 08:15:18;;;;;;;8.90;3.90;;;20.90;76.30;;;;;;5048338;28;20044;-84
2021/07/24 08:17:44;;;;;;;5.63;3.22;;;21.00;76.30;;;;;;5014132;28;20022;-84
2021/07/24 08:20:10;;;;;;;8.52;3.20;;;21.00;76.20;;;;;;5016934;28;20010;-84
2021/07/24 08:22:36;;;;;;;7.13;3.38;;;21.10;76.20;;;;;;5049352;28;20010;-85
2021/07/24 08:25:03;;;;;;;6.75;3.63;;;21.10;76.00;;;;;;5013736;28;20018;-84
2021/07/24 08:27:30;;;;;;;6.95;3.10;;;21.20;76.00;;;;;;5013676;28;20458;-84
2021/07/24 08:29:56;;;;;;;7.10;3.20;;;21.20;75.90;;;;;;5013093;28;20091;-84
2021/07/24 08:32:21;;;;;;;8.50;4.00;;;21.30;75.80;;;;;;5013111;28;20112;-85
2021/07/24 08:34:51;;;;;;;6.25;3.35;;;21.40;75.80;;;;;;5012260;28;20022;-84
2021/07/24 08:37:18;;;;;;;6.07;3.10;;;21.40;75.70;;;;;;5029104;28;20091;-84
2021/07/24 08:39:44;;;;;;;7.32;3.67;;;21.50;75.50;;;;;;5029548;28;20030;-83
2021/07/24 08:42:28;;;;;;;6.72;3.25;;;21.60;75.40;;;;;;5027916;28;20048;-84
2021/07/24 08:44:54;;;;;;;6.68;3.08;;;21.70;75.40;;;;;;5028555;28;20017;-83
2021/07/24 08:47:20;;;;;;;8.00;4.15;;;21.80;75.00;;;;;;5031540;28;20414;-83
2021/07/24 08:49:45;;;;;;;6.28;3.45;;;21.90;74.90;;;;;;5032914;28;20025;-84
2021/07/24 08:52:18;;;;;;;5.63;3.10;;;22.00;74.70;;;;;;5027683;28;20117;-83
2021/07/24 08:54:43;;;;;;;6.35;3.22;;;22.10;74.40;;;;;;5010527;28;20061;-83
2021/07/24 08:57:13;;;;;;;5.38;2.92;;;22.20;74.30;;;;;;5012041;28;20022;-83
2021/07/24 08:59:40;;;;;;;7.32;3.65;;;22.30;74.20;;;;;;5011945;28;20044;-84
2021/07/24 09:02:08;;;;;;;9.30;3.85;;;22.40;74.10;;;;;;5011581;28;20351;-82
2021/07/24 09:04:36;;;;;;;6.63;3.67;;;22.40;73.80;;;;;;5012043;28;20032;-83
2021/07/24 09:07:05;;;;;;;6.32;3.42;;;22.50;73.80;;;;;;5011254;28;20040;-82
2021/07/24 09:09:34;;;;;;;5.60;2.90;;;22.60;73.70;;;;;;5011759;28;20434;-82
2021/07/24 09:12:00;;;;;;;7.28;3.60;;;22.60;74.20;;;;;;5011106;28;20018;-82
2021/07/24 09:14:25;;;;;;;6.00;3.15;;;22.70;73.50;;;;;;5013052;28;20017;-83
2021/07/24 09:16:52;;;;;;;7.10;3.38;;;22.80;73.40;;;;;;5011732;28;20022;-80
2021/07/24 09:19:18;;;;;;;7.07;3.75;;;22.90;73.30;;;;;;5011954;28;20023;-83
2021/07/24 09:21:43;;;;;;;5.97;3.42;;;23.00;73.00;;;;;;5013056;28;20018;-83
2021/07/24 09:24:23;;;;;;;6.68;3.63;;;23.20;72.80;;;;;;5011273;28;20028;-83
2021/07/24 09:26:49;;;;;;;5.07;3.08;;;23.30;72.70;;;;;;5011989;28;20026;-83
2021/07/24 09:29:17;;;;;;;5.72;3.20;;;23.30;72.40;;;;;;5012326;28;20092;-83
2021/07/24 09:31:44;;;;;;;7.57;3.13;;;23.40;72.40;;;;;;5013670;28;20144;-82
2021/07/24 09:34:13;;;;;;;5.40;3.17;;;23.50;72.30;;;;;;5023513;28;20034;-82
2021/07/24 09:36:39;;;;;;;10.07;3.63;;;23.50;72.30;;;;;;5027966;28;20049;-82
2021/07/24 09:39:16;;;;;;;7.13;3.20;;;23.50;72.30;;;;;;5023183;28;20026;-83
2021/07/24 09:41:47;;;;;;;5.50;2.95;;;23.50;72.30;;;;;;5026596;28;20097;-82
2021/07/24 09:44:34;;;;;;;8.38;3.55;;;23.50;72.30;;;;;;5028440;28;20387;-82
2021/07/24 09:47:01;;;;;;;6.05;3.80;;;23.60;72.40;;;;;;5015425;28;20028;-82
2021/07/24 09:49:37;;;;;;;6.80;3.92;;;23.60;72.20;;;;;;5017142;28;20022;-83
2021/07/24 09:52:14;;;;;;;7.90;3.88;;;23.60;72.00;;;;;;5015003;28;20028;-83
2021/07/24 09:54:41;;;;;;;7.05;3.70;;;23.60;72.00;;;;;;5016393;28;20046;-83
2021/07/24 09:57:07;;;;;;;7.43;3.63;;;23.60;72.00;;;;;;5015607;28;20101;-83
2021/07/24 09:59:34;;;;;;;6.65;3.55;;;23.60;71.90;;;;;;5015337;28;20449;-83
2021/07/24 10:02:08;;;;;;;5.75;3.28;;;23.60;72.00;;;;;;5015688;28;20049;-83
2021/07/24 10:04:35;;;;;;;5.97;3.30;;;23.60;71.80;;;;;;5016265;28;20025;-83
2021/07/24 10:07:06;;;;;;;6.90;3.75;;;23.70;71.80;;;;;;5014592;28;20065;-83
2021/07/24 10:09:37;;;;;;;6.45;3.35;;;23.70;71.90;;;;;;5016188;28;20040;-83
2021/07/24 10:12:04;;;;;;;7.07;3.88;;;23.70;71.90;;;;;;5015629;28;20108;-83
2021/07/24 10:14:31;;;;;;;7.05;4.20;;;23.70;72.10;;;;;;5015062;28;20014;-83
2021/07/24 10:16:59;;;;;;;8.35;3.65;;;23.70;72.10;;;;;;5015923;28;20080;-82
2021/07/24 10:19:26;;;;;;;9.18;4.45;;;23.70;72.10;;;;;;5014670;28;20045;-83
2021/07/24 10:21:53;;;;;;;8.65;4.30;;;23.70;72.00;;;;;;5014626;28;20049;-83
2021/07/24 10:24:20;;;;;;;7.13;4.38;;;23.70;71.90;;;;;;5013777;28;20029;-83
2021/07/24 10:27:09;;;;;;;6.95;3.80;;;23.70;72.00;;;;;;5015776;28;20072;-84
2021/07/24 10:29:51;;;;;;;7.82;3.88;;;23.70;71.90;;;;;;5014521;28;20374;-83
2021/07/24 10:32:23;;;;;;;7.28;3.35;;;23.80;72.00;;;;;;5013960;28;20133;-83
2021/07/24 10:34:54;;;;;;;8.00;3.90;;;23.80;72.00;;;;;;5015964;28;20029;-83
2021/07/24 10:37:42;;;;;;;8.48;3.90;;;23.80;72.00;;;;;;5014902;28;20033;-83
2021/07/24 10:40:17;;;;;;;5.97;3.53;;;23.90;72.10;;;;;;5015029;28;20030;-84
2021/07/24 10:42:49;;;;;;;8.55;4.53;;;23.90;72.10;;;;;;5015364;28;20424;-83
2021/07/24 10:45:33;;;;;;;8.88;4.65;;;23.90;72.00;;;;;;5013819;28;20469;-82
2021/07/24 10:48:14;;;;;;;6.90;4.07;;;23.90;72.10;;;;;;5013525;28;20029;-82
2021/07/24 10:50:58;;;;;;;;;;;23.90;72.00;;;;;;5015988;28;20026;-82
2021/07/24 10:53:27;;;;;;;9.07;4.53;;;23.90;72.00;;;;;;5015551;28;19901;-82
2021/07/24 10:55:54;;;;;;;9.70;4.53;;;23.90;71.90;;;;;;5027624;28;20042;-83
2021/07/24 10:58:22;;;;;;;9.38;4.57;;;23.80;71.90;;;;;;5016562;28;20041;-83
2021/07/24 11:00:50;;;;;;;8.95;4.20;;;23.70;72.10;;;;;;5015597;28;20486;-84
2021/07/24 11:03:28;;;;;;;7.93;4.53;;;23.70;72.40;;;;;;5014616;28;20022;-84
2021/07/24 11:05:55;;;;;;;11.13;4.90;;;23.70;72.50;;;;;;5013748;28;20026;-84
2021/07/24 11:08:59;;;;;;;8.25;4.90;;;23.80;72.50;;;;;;5012916;28;20026;-84
2021/07/24 11:12:02;;;;;;;10.27;4.88;;;23.80;72.50;;;;;;5014571;28;20033;-83
2021/07/24 11:14:37;;;;;;;9.57;4.82;;;23.80;72.60;;;;;;5015710;28;20022;-84
2021/07/24 11:17:05;;;;;;;9.82;4.80;;;23.80;72.70;;;;;;5028088;28;20038;-83
2021/07/24 11:19:31;;;;;;;9.68;4.82;;;23.80;72.90;;;;;;5030373;28;20045;-84
2021/07/24 11:22:16;;;;;;;10.45;4.72;;;23.70;72.90;;;;;;5023103;28;20076;-84
2021/07/24 11:25:01;;;;;;;10.20;4.43;;;23.70;73.10;;;;;;5015521;28;20024;-84
2021/07/24 11:27:27;;;;;;;9.13;4.13;;;23.70;73.00;;;;;;5018580;28;20372;-84
2021/07/24 11:30:05;;;;;;;7.65;4.68;;;23.70;73.70;;;;;;5023139;28;20026;-84
2021/07/24 11:32:42;;;;;;;11.25;5.20;;;23.70;73.20;;;;;;5014493;28;20026;-81
2021/07/24 11:35:12;;;;;;;7.70;4.28;;;23.70;73.20;;;;;;5013892;28;20105;-83
2021/07/24 11:37:44;;;;;;;8.50;4.65;;;23.70;73.20;;;;;;5014716;28;20541;-83
2021/07/24 11:40:18;;;;;;;9.43;5.00;;;23.80;73.40;;;;;;5013463;28;20425;-83
2021/07/24 11:43:00;;;;;;;9.48;5.10;;;23.80;73.10;;;;;;5014433;28;20028;-83
2021/07/24 11:45:30;;;;;;;7.38;4.70;;;23.80;73.00;;;;;;5013011;28;20049;-83
2021/07/24 11:48:09;;;;;;;9.48;4.85;;;23.80;73.10;;;;;;5014435;28;20109;-84
2021/07/24 11:50:35;;;;;;;12.63;7.78;;;23.90;73.00;;;;;;5013721;28;20036;-82
2021/07/24 11:53:02;;;;;;;10.38;5.45;;;23.90;73.00;;;;;;5014285;28;20513;-82
2021/07/24 11:55:30;;;;;;;11.15;5.30;;;23.90;73.10;;;;;;5014132;28;20041;-82
2021/07/24 11:58:13;;;;;;;8.30;4.95;;;23.90;73.20;;;;;;5014345;28;20022;-83
2021/07/24 12:00:40;;;;;;;9.35;5.10;;;23.90;73.40;;;;;;5014226;28;20101;-83
2021/07/24 12:03:22;;;;;;;8.93;5.00;;;23.90;73.50;;;;;;5012462;28;20045;-83
2021/07/24 12:05:53;;;;;;;8.50;4.90;;;23.90;73.70;;;;;;5013994;28;20018;-83
2021/07/24 12:08:22;;;;;;;8.15;5.07;;;24.00;73.90;;;;;;5014169;28;20022;-83
2021/07/24 12:10:50;;;;;;;8.30;4.90;;;24.00;74.00;;;;;;5016870;28;20022;-83
2021/07/24 12:13:24;;;;;;;9.55;5.00;;;23.90;74.00;;;;;;5028045;28;20017;-82
2021/07/24 12:15:56;;;;;;;10.68;5.28;;;23.80;74.30;;;;;;5015668;28;20076;-83
2021/07/24 12:18:22;;;;;;;9.85;5.47;;;23.80;74.30;;;;;;5013221;28;20377;-82
2021/07/24 12:20:51;;;;;;;7.68;4.57;;;23.80;74.30;;;;;;5013874;28;20096;-83
2021/07/24 12:23:21;;;;;;;9.68;5.00;;;23.80;74.50;;;;;;5012125;28;20343;-82
2021/07/24 12:26:12;;;;;;;10.57;5.53;;;23.70;74.70;;;;;;5012167;28;20022;-83
2021/07/24 12:28:39;;;;;;;9.85;5.30;;;23.70;74.90;;;;;;5012493;28;20300;-83
2021/07/24 12:31:25;;;;;;;9.30;5.40;;;23.60;74.90;;;;;;5012711;28;20018;-83
2021/07/24 12:33:55;;;;;;;9.48;4.82;;;23.60;75.30;;;;;;5013946;28;20053;-82
2021/07/24 12:36:22;;;;;;;9.80;5.20;;;23.60;75.50;;;;;;5013267;28;20541;-83
2021/07/24 12:38:49;;;;;;;9.73;4.88;;;23.50;75.40;;;;;;5014401;28;20105;-82
2021/07/24 12:41:15;;;;;;;11.32;5.50;;;23.50;75.50;;;;;;5012621;28;20018;-85
2021/07/24 12:43:59;;;;;;;12.73;5.78;;;23.60;75.50;;;;;;5039600;28;20468;-84
2021/07/24 12:46:25;;;;;;;9.55;5.65;;;23.60;75.50;;;;;;5047961;28;20125;-84
2021/07/24 12:48:53;;;;;;;9.63;5.20;;;23.60;75.50;;;;;;5044613;28;20492;-83
2021/07/24 12:51:26;;;;;;;8.93;5.15;;;23.60;75.40;;;;;;5026387;28;20438;-83
2021/07/24 12:54:10;;;;;;;9.93;5.95;;;23.70;75.50;;;;;;5031353;28;20144;-84